Accueil
METAR-TAF:

METAR-TAF

Aéroports :

Aéroport international de Pohnpei

Ponape, Micronésie

latitude: 06-59N, longitude: 158-12E, altitude: 2 m

Observation

Le bulletin a été fait il y a 5 heures et 32 minutes, à 03:52 UTC
Vent 10 kt de est
Température 30°C
Humidité 79%
Pression 1007 hPa
Visibilité: 24.1 km
Quelques nuages à une hauteur de 1800 ft
Nuages fragmentés à une hauteur de 13000 ft
Ciel couvert à une hauteur de 30000 ft

METAR: PTPN 210352Z 08010KT 15SM FEW018 BKN130 OVC300 30/26 A2975 RMK LAST

Heure: 20:24 (09:24 UTC)

Prévision

Le bulletin a été fait il y a 9 heures et 42 minutes, à 23:42 UTC
Prévision valable du 21 à 00 UTC au 21 à 24 UTC
Vent 11 kt de est
Visibilité: 10 km
Nuages épars à une hauteur de 1800 ft
Nuages fragmentés à une hauteur de 13000 ft
averses à proximité

TAF: PTPN 202342Z 2100/2124 08011KT P6SM VCSH SCT018 BKN130

Observations et prévisions météorologiques de plus de 4000 aéroports (messages METAR et TAF).

Les stations disponibles sont représentées par des disques jaunes et rouges sur la carte.

Passer la souris dessus pour voir le nom de la station.

Cliquer dessus pour voir les observations et prévisions météorologiques.

Pour changer de carte: cliquez sur les boutons verts avec une croix noire pour zoomer, sur le bouton vert avec un tiret pour effectuer un zoom arrière, ou sur les flèches vertes pour les cartes adjacentes.


METAR-TAF: